GMT,Max TemperatureF,Mean TemperatureF,Min TemperatureF,Max Dew PointF,MeanDew PointF,Min DewpointF,Max Humidity, Mean Humidity, Min Humidity, Max Sea Level PressureIn, Mean Sea Level PressureIn, Min Sea Level PressureIn, Max VisibilityMiles, Mean VisibilityMiles, Min VisibilityMiles, Max Wind SpeedMPH, Mean Wind SpeedMPH, Max Gust SpeedMPH,PrecipitationIn, CloudCover, Events, WindDirDegrees
2012-10-1,58,54,50,52,48,46,94,82,66,29.81,29.73,29.68,16,7,3,26,13,,0.04,5,Rain,213
2012-10-2,57,53,49,50,48,45,96,83,67,29.71,29.55,29.44,16,7,6,30,14,43,0.04,4,Rain,220
2012-10-3,55,50,46,50,45,43,100,83,64,29.62,29.58,29.53,12,6,5,24,16,38,0.08,4,Rain,243
2012-10-4,54,49,44,48,47,45,100,90,69,29.74,29.65,29.56,16,7,4,16,8,,0.12,4,Fog-Rain,214
2012-10-5,54,49,42,48,46,43,100,85,70,29.83,29.72,29.56,16,6,6,13,8,,0.00,5,Rain,255
2012-10-6,58,46,35,50,43,36,100,91,67,30.12,29.98,29.83,12,5,0,7,3,,0.00,2,Fog,348
2012-10-7,54,46,39,50,46,39,100,93,76,30.15,30.10,29.98,19,5,0,16,6,,0.00,6,Fog-Rain,79
2012-10-8,56,52,46,52,49,45,100,90,82,30.01,29.95,29.92,11,6,4,14,9,,0.12,6,Rain,54
2012-10-9,56,50,44,52,47,41,100,89,77,30.01,29.99,29.98,12,6,6,9,6,,0.00,7,,45
2012-10-10,59,55,51,57,53,48,100,92,85,29.98,29.81,29.62,11,5,2,13,7,,0.04,7,Rain,111
2012-10-11,55,50,44,55,48,41,100,86,62,29.74,29.64,29.53,16,6,1,22,11,,0.01,4,Rain,301
2012-10-12,52,47,42,46,44,41,100,88,76,29.75,29.72,29.68,19,7,6,14,7,25,0.04,3,Rain,241
2012-10-13,54,48,42,46,43,41,100,87,72,29.74,29.71,29.65,16,7,6,13,6,,0.04,3,Fog-Rain,258
2012-10-14,55,45,35,50,43,36,100,90,57,29.72,29.68,29.65,7,4,0,18,5,,0.08,5,Fog-Rain,308
2012-10-15,51,46,40,50,46,40,100,95,76,29.68,29.49,29.24,16,4,0,36,7,52,0.24,6,Fog-Rain,167
2012-10-16,55,50,45,48,44,41,94,77,52,29.53,29.41,29.21,16,6,6,31,17,50,0.02,5,Rain,241
2012-10-17,54,50,47,52,48,45,100,91,82,29.18,28.99,28.94,12,6,3,20,13,30,0.16,6,Rain,78
2012-10-18,55,52,48,52,50,48,100,96,88,29.59,29.27,28.97,7,6,2,15,10,,0.04,5,Rain,294
2012-10-19,55,52,48,50,48,46,100,89,72,29.79,29.72,29.59,16,7,6,13,8,,0.00,6,,358
2012-10-20,60,54,48,50,49,46,100,86,67,29.92,29.85,29.77,19,6,6,16,7,,0.00,6,,135
2012-10-21,60,54,48,52,49,46,100,85,55,30.04,29.99,29.92,19,7,6,18,12,,0.00,3,,116
2012-10-22,58,52,46,52,50,45,100,90,77,30.24,30.13,30.04,12,7,4,13,9,,0.00,5,,100
2012-10-23,58,54,50,55,52,50,100,95,82,30.33,30.28,30.24,11,5,2,12,4,,0.04,6,,21
2012-10-24,56,54,53,54,52,50,94,92,88,30.30,30.17,30.09,12,6,4,18,11,,0.00,7,Rain,32
2012-10-25,52,51,50,52,49,43,100,93,76,30.10,30.05,30.01,7,5,2,21,14,,0.00,7,Rain,37
2012-10-26,47,40,33,45,35,25,87,70,46,30.24,30.11,30.04,19,7,6,21,15,,0.00,4,,29
2012-10-27,47,38,28,39,31,27,93,74,41,30.42,30.33,30.24,16,7,6,14,7,,0.00,5,,305
2012-10-28,50,48,45,46,43,37,93,83,67,30.27,29.94,29.68,12,6,4,23,13,,0.12,6,Rain,248
2012-10-29,50,43,36,46,41,36,100,91,81,29.92,29.83,29.71,12,6,0,10,5,,0.00,4,Fog,336
2012-10-30,49,44,38,46,42,36,93,86,74,29.91,29.64,29.24,12,6,3,18,9,29,0.08,6,Rain,240
2012-10-31,49,42,35,46,40,36,100,85,66,29.23,28.94,28.80,12,6,2,20,11,36,0.12,4,Rain,238